createdAt,value
2019-03-10T00:00:35.031Z,71.47
2019-03-10T00:03:07.090Z,71.36
2019-03-10T00:05:38.662Z,71.26
2019-03-10T00:08:10.251Z,71.05
2019-03-10T00:10:41.828Z,71.11
2019-03-10T00:13:13.420Z,71.17
2019-03-10T00:15:45.016Z,70.85
2019-03-10T00:18:19.412Z,70.59
2019-03-10T00:20:50.994Z,70.63
2019-03-10T00:23:22.571Z,70.39
2019-03-10T00:25:54.141Z,70.43
2019-03-10T00:28:25.703Z,70.29
2019-03-10T00:30:57.291Z,70.07
2019-03-10T00:33:28.954Z,70.17
2019-03-10T00:36:00.532Z,70.42
2019-03-10T00:39:10.606Z,70.68
2019-03-10T00:42:29.790Z,71.07
2019-03-10T00:45:54.845Z,71.30
2019-03-10T00:49:37.621Z,71.39
2019-03-10T00:52:31.951Z,71.58
2019-03-10T00:55:04.469Z,71.74
2019-03-10T00:57:36.033Z,71.62
2019-03-10T01:00:15.197Z,71.53
2019-03-10T01:02:46.763Z,71.53
2019-03-10T01:05:20.364Z,71.64
2019-03-10T01:07:51.927Z,71.95
2019-03-10T01:10:23.492Z,71.77
2019-03-10T01:12:55.296Z,71.68
2019-03-10T01:15:27.250Z,72.02
2019-03-10T01:18:00.445Z,72.15
2019-03-10T01:20:32.285Z,72.28
2019-03-10T01:23:03.881Z,72.45
2019-03-10T01:25:35.446Z,72.39
2019-03-10T01:28:07.013Z,72.67
2019-03-10T01:31:06.526Z,72.86
2019-03-10T01:34:26.159Z,72.77
2019-03-10T01:36:57.702Z,72.90
2019-03-10T01:39:29.288Z,73.09
2019-03-10T01:42:00.835Z,73.30
2019-03-10T01:44:32.415Z,73.39
2019-03-10T01:47:03.969Z,73.17
2019-03-10T01:49:35.605Z,73.22
2019-03-10T01:52:07.188Z,73.58
2019-03-10T01:54:40.355Z,73.29
2019-03-10T01:57:11.892Z,73.37
2019-03-10T01:59:43.471Z,73.35
2019-03-10T02:02:15.040Z,73.05
2019-03-10T02:04:49.453Z,73.14
2019-03-10T02:07:21.011Z,73.17
2019-03-10T02:09:52.695Z,73.27
2019-03-10T02:12:24.264Z,73.20
2019-03-10T02:14:55.806Z,72.83
2019-03-10T02:17:27.375Z,72.68
2019-03-10T02:19:58.936Z,72.67
2019-03-10T02:22:32.073Z,72.52
2019-03-10T02:25:03.629Z,72.61
2019-03-10T02:27:35.181Z,72.54
2019-03-10T02:30:08.425Z,72.54
2019-03-10T02:32:39.987Z,72.44
2019-03-10T02:35:11.595Z,72.32
2019-03-10T02:37:44.614Z,72.11
2019-03-10T02:40:16.193Z,72.14
2019-03-10T02:42:47.749Z,72.17
2019-03-10T02:45:19.300Z,72.13
2019-03-10T02:47:50.864Z,72.13
2019-03-10T02:50:22.469Z,72.27
2019-03-10T02:52:54.001Z,72.44
2019-03-10T02:55:25.568Z,72.49
2019-03-10T02:57:57.169Z,72.75
2019-03-10T03:00:28.699Z,72.97
2019-03-10T03:03:00.273Z,73.21
2019-03-10T03:05:31.819Z,73.25
2019-03-10T03:08:04.366Z,73.25
2019-03-10T03:10:35.916Z,73.23
2019-03-10T03:13:07.472Z,73.27
2019-03-10T03:15:41.527Z,73.26
2019-03-10T03:18:13.097Z,73.21
2019-03-10T03:20:44.653Z,73.17
2019-03-10T03:23:16.218Z,73.20
2019-03-10T03:25:47.781Z,73.17
2019-03-10T03:28:19.333Z,73.12
2019-03-10T03:30:50.901Z,73.26
2019-03-10T03:33:22.639Z,73.26
2019-03-10T03:36:28.367Z,73.55
2019-03-10T03:39:31.689Z,73.75
2019-03-10T03:42:03.248Z,74.04
2019-03-10T03:44:34.805Z,74.60
2019-03-10T03:47:06.384Z,74.71
2019-03-10T03:49:37.992Z,74.60
2019-03-10T03:52:09.557Z,75.40
2019-03-10T03:54:43.865Z,77.10
2019-03-10T03:57:15.418Z,77.87
2019-03-10T03:59:50.113Z,78.22
2019-03-10T04:02:49.365Z,78.73
2019-03-10T04:05:20.926Z,80.26
2019-03-10T04:07:52.491Z,80.94
2019-03-10T04:10:24.070Z,81.24
2019-03-10T04:12:55.633Z,80.76
2019-03-10T04:15:27.187Z,80.51
2019-03-10T04:18:00.417Z,81.02
2019-03-10T04:20:31.997Z,80.50
2019-03-10T04:23:03.548Z,81.10
2019-03-10T04:25:35.146Z,81.24
2019-03-10T04:28:06.702Z,81.74
2019-03-10T04:30:40.335Z,81.91
2019-03-10T04:33:11.879Z,81.73
2019-03-10T04:35:43.463Z,81.65
2019-03-10T04:38:15.017Z,82.11
2019-03-10T04:40:49.330Z,82.32
2019-03-10T04:43:20.896Z,81.98
2019-03-10T04:45:52.465Z,81.77
2019-03-10T04:48:24.022Z,82.16
2019-03-10T04:50:55.607Z,82.22
2019-03-10T04:53:27.149Z,81.92
2019-03-10T04:56:04.092Z,81.87
2019-03-10T04:58:38.735Z,81.87
2019-03-10T05:01:10.316Z,81.46
2019-03-10T05:03:41.881Z,81.12
2019-03-10T05:06:13.436Z,81.19
2019-03-10T05:08:45.000Z,81.45
2019-03-10T05:11:16.553Z,81.59
2019-03-10T05:13:51.125Z,81.67
2019-03-10T05:16:22.679Z,81.86
2019-03-10T05:18:54.236Z,81.70
2019-03-10T05:21:25.794Z,81.81
2019-03-10T05:23:59.848Z,81.95
2019-03-10T05:26:32.759Z,81.93
2019-03-10T05:29:04.321Z,81.81
2019-03-10T05:31:35.877Z,81.84
2019-03-10T05:34:07.473Z,81.69
2019-03-10T05:36:39.016Z,81.62
2019-03-10T05:39:10.581Z,81.54
2019-03-10T05:41:42.114Z,81.43
2019-03-10T05:44:13.678Z,81.33
2019-03-10T05:46:45.325Z,81.33
2019-03-10T05:49:16.895Z,81.00
2019-03-10T05:51:48.547Z,81.27
2019-03-10T05:54:20.106Z,81.81
2019-03-10T05:56:51.679Z,81.83
2019-03-10T05:59:23.221Z,81.27
2019-03-10T06:01:54.862Z,81.41
2019-03-10T06:04:26.396Z,81.46
2019-03-10T06:06:57.962Z,81.71
2019-03-10T06:09:29.501Z,82.36
2019-03-10T06:12:02.264Z,82.75
2019-03-10T06:14:33.868Z,82.73
2019-03-10T06:17:05.444Z,81.98
2019-03-10T06:19:37.000Z,82.19
2019-03-10T06:22:08.586Z,82.58
2019-03-10T06:24:40.132Z,83.76
2019-03-10T06:27:11.735Z,84.10
2019-03-10T06:29:44.866Z,84.06
2019-03-10T06:32:18.097Z,83.64
2019-03-10T06:34:49.767Z,83.19
2019-03-10T06:37:26.038Z,83.14
2019-03-10T06:39:57.706Z,82.93
2019-03-10T06:42:32.625Z,82.80
2019-03-10T06:45:05.372Z,82.39
2019-03-10T06:47:36.927Z,82.57
2019-03-10T06:50:09.388Z,82.51
2019-03-10T06:52:40.969Z,82.64
2019-03-10T06:55:12.603Z,83.17
2019-03-10T06:57:44.162Z,83.32
2019-03-10T07:00:17.674Z,83.39
2019-03-10T07:02:49.387Z,83.42
2019-03-10T07:05:20.956Z,83.51
2019-03-10T07:07:54.120Z,83.64
2019-03-10T07:10:25.690Z,83.67
2019-03-10T07:12:57.237Z,83.76
2019-03-10T07:15:30.316Z,83.90
2019-03-10T07:18:01.907Z,84.15
2019-03-10T07:20:34.597Z,83.87
2019-03-10T07:23:08.428Z,83.95
2019-03-10T07:25:41.315Z,84.06
2019-03-10T07:28:33.773Z,83.98
2019-03-10T07:31:16.868Z,84.06
2019-03-10T07:34:00.532Z,84.25
2019-03-10T07:36:58.095Z,84.78
2019-03-10T07:39:45.788Z,85.27
2019-03-10T07:42:29.909Z,85.56
2019-03-10T07:45:20.457Z,85.93
2019-03-10T07:48:09.749Z,86.12
2019-03-10T07:51:00.193Z,86.53
2019-03-10T07:54:09.037Z,86.85
2019-03-10T07:57:08.534Z,87.22
2019-03-10T07:59:54.746Z,87.68
2019-03-10T08:03:06.227Z,88.49
2019-03-10T08:05:58.309Z,89.37
2019-03-10T08:08:46.268Z,89.88
2019-03-10T08:11:39.492Z,90.28
2019-03-10T08:14:32.954Z,90.43
2019-03-10T08:17:24.591Z,90.55
2019-03-10T08:20:07.705Z,90.64
2019-03-10T08:23:13.243Z,90.67
2019-03-10T08:26:00.922Z,90.71
2019-03-10T08:28:54.397Z,90.90
2019-03-10T08:31:35.064Z,90.94
2019-03-10T08:34:28.442Z,90.80
2019-03-10T08:37:28.287Z,90.68
2019-03-10T08:40:22.997Z,90.67
2019-03-10T08:43:24.973Z,90.75
2019-03-10T08:46:15.416Z,90.79
2019-03-10T08:49:02.649Z,90.76
2019-03-10T08:51:53.101Z,90.60
2019-03-10T08:54:31.754Z,90.57
2019-03-10T08:57:31.576Z,90.61
2019-03-10T09:00:37.407Z,90.68
2019-03-10T09:03:16.741Z,90.44
2019-03-10T09:06:09.881Z,90.68
2019-03-10T09:09:01.089Z,90.60
2019-03-10T09:11:53.290Z,90.69
2019-03-10T09:14:43.724Z,90.46
2019-03-10T09:17:46.309Z,90.26
2019-03-10T09:20:42.580Z,89.81
2019-03-10T09:23:45.422Z,89.61
2019-03-10T09:26:36.217Z,89.12
2019-03-10T09:29:38.565Z,88.79
2019-03-10T09:32:28.978Z,88.20
2019-03-10T09:35:17.936Z,87.76
2019-03-10T09:37:55.966Z,87.68
2019-03-10T09:40:49.178Z,87.44
2019-03-10T09:43:30.792Z,86.66
2019-03-10T09:46:09.764Z,87.00
2019-03-10T09:48:58.879Z,86.79
2019-03-10T09:51:40.584Z,86.91
2019-03-10T09:54:32.488Z,86.81
2019-03-10T09:57:21.866Z,86.87
2019-03-10T10:00:06.751Z,87.62
2019-03-10T10:02:55.919Z,87.93
2019-03-10T10:05:51.354Z,87.73
2019-03-10T10:08:47.960Z,87.52
2019-03-10T10:11:41.521Z,87.83
2019-03-10T10:14:29.042Z,88.04
2019-03-10T10:17:12.785Z,88.11
2019-03-10T10:20:03.274Z,87.96
2019-03-10T10:22:54.328Z,87.92
2019-03-10T10:25:40.938Z,87.26
2019-03-10T10:28:21.753Z,87.46
2019-03-10T10:31:14.067Z,87.44
2019-03-10T10:34:10.735Z,87.39
2019-03-10T10:37:01.212Z,87.10
2019-03-10T10:39:49.200Z,87.24
2019-03-10T10:42:39.346Z,86.60
2019-03-10T10:45:36.980Z,86.69
2019-03-10T10:48:36.576Z,86.03
2019-03-10T10:51:20.607Z,86.67
2019-03-10T10:54:17.138Z,86.44
2019-03-10T10:57:19.879Z,86.55
2019-03-10T11:00:16.452Z,86.17
2019-03-10T11:03:07.826Z,86.49
2019-03-10T11:06:10.563Z,86.32
2019-03-10T11:08:59.623Z,86.64
2019-03-10T11:11:46.346Z,86.51
2019-03-10T11:14:39.718Z,86.21
2019-03-10T11:17:31.556Z,85.11
2019-03-10T11:20:20.684Z,84.88
2019-03-10T11:23:14.453Z,83.56
2019-03-10T11:26:00.897Z,81.87
2019-03-10T11:28:54.090Z,78.79
2019-03-10T11:31:38.095Z,78.28
2019-03-10T11:34:19.817Z,77.60
2019-03-10T11:37:08.757Z,76.34
2019-03-10T11:39:47.266Z,74.45
2019-03-10T11:42:36.367Z,74.55
2019-03-10T11:45:30.643Z,74.02
2019-03-10T11:48:13.491Z,74.83
2019-03-10T11:50:57.757Z,75.20
2019-03-10T11:53:44.964Z,75.00
2019-03-10T11:56:25.626Z,72.01
2019-03-10T11:59:10.129Z,70.90
2019-03-10T12:02:15.231Z,68.97
2019-03-10T12:05:08.815Z,68.67
2019-03-10T12:08:05.604Z,67.86
2019-03-10T12:10:37.248Z,68.42
2019-03-10T12:13:08.939Z,67.40
2019-03-10T12:15:40.536Z,67.02
2019-03-10T12:18:12.357Z,68.10
2019-03-10T12:20:47.102Z,68.07
2019-03-10T12:23:19.000Z,67.88
2019-03-10T12:25:50.615Z,67.37
2019-03-10T12:28:22.223Z,67.20
2019-03-10T12:30:53.806Z,66.89
2019-03-10T12:33:25.458Z,66.86
2019-03-10T12:35:57.288Z,65.16
2019-03-10T12:38:28.887Z,65.69
2019-03-10T12:41:00.465Z,65.91
2019-03-10T12:43:32.050Z,65.86
2019-03-10T12:46:03.641Z,65.99
2019-03-10T12:48:35.286Z,65.98
2019-03-10T12:51:06.964Z,65.37
2019-03-10T12:53:38.555Z,64.57
2019-03-10T12:56:10.143Z,63.29
2019-03-10T12:58:41.721Z,62.57
2019-03-10T13:01:13.320Z,62.51
2019-03-10T13:03:44.981Z,61.52
2019-03-10T13:06:16.656Z,63.08
2019-03-10T13:08:48.289Z,63.28
2019-03-10T13:11:19.912Z,62.83
2019-03-10T13:13:51.556Z,62.90
2019-03-10T13:16:23.142Z,62.97
2019-03-10T13:18:54.786Z,65.31
2019-03-10T13:21:26.472Z,66.39
2019-03-10T13:23:58.051Z,65.30
2019-03-10T13:26:32.165Z,63.31
2019-03-10T13:29:05.539Z,64.30
2019-03-10T13:31:38.217Z,64.29
2019-03-10T13:34:09.842Z,61.02
2019-03-10T13:36:41.475Z,57.71
2019-03-10T13:39:13.244Z,58.20
2019-03-10T13:41:45.366Z,56.44
2019-03-10T13:44:16.932Z,56.93
2019-03-10T13:46:48.713Z,56.55
2019-03-10T13:49:20.297Z,55.62
2019-03-10T13:51:51.975Z,54.60
2019-03-10T13:54:23.736Z,54.95
2019-03-10T13:56:58.468Z,55.79
2019-03-10T13:59:35.843Z,54.65
2019-03-10T14:02:07.562Z,54.39
2019-03-10T14:04:39.492Z,54.69
2019-03-10T14:07:19.098Z,55.25
2019-03-10T14:09:50.837Z,53.59
2019-03-10T14:12:22.446Z,53.96
2019-03-10T14:14:54.134Z,55.14
2019-03-10T14:17:25.736Z,53.90
2019-03-10T14:19:58.521Z,53.03
2019-03-10T14:22:31.487Z,52.72
2019-03-10T14:25:03.085Z,51.76
2019-03-10T14:27:34.768Z,50.95
2019-03-10T14:30:08.682Z,50.55
2019-03-10T14:32:43.402Z,51.13
2019-03-10T14:35:15.554Z,52.48
2019-03-10T14:37:47.183Z,52.83
2019-03-10T14:40:18.932Z,53.38
2019-03-10T14:42:50.620Z,52.76
2019-03-10T14:45:22.373Z,52.78
2019-03-10T14:47:54.267Z,52.83
2019-03-10T14:50:25.859Z,52.27
2019-03-10T14:52:57.562Z,51.99
2019-03-10T14:55:29.590Z,51.85
2019-03-10T14:58:03.997Z,50.40
2019-03-10T15:00:35.644Z,50.01
2019-03-10T15:03:07.250Z,49.96
2019-03-10T15:05:38.939Z,50.31
2019-03-10T15:08:12.268Z,50.14
2019-03-10T15:10:43.823Z,48.51
2019-03-10T15:13:15.460Z,46.77
2019-03-10T15:15:47.069Z,45.74
2019-03-10T15:18:18.684Z,45.62
2019-03-10T15:20:50.311Z,46.02
2019-03-10T15:23:21.940Z,46.58
2019-03-10T15:25:53.563Z,46.33
2019-03-10T15:28:25.181Z,46.78
2019-03-10T15:30:56.854Z,47.05
2019-03-10T15:33:28.433Z,47.08
2019-03-10T15:36:00.077Z,46.79
2019-03-10T15:38:34.433Z,45.94
2019-03-10T15:41:08.298Z,46.69
2019-03-10T15:43:39.931Z,46.57
2019-03-10T15:46:11.546Z,47.67
2019-03-10T15:48:49.619Z,46.31
2019-03-10T15:51:23.387Z,46.23
2019-03-10T15:53:58.823Z,47.22
2019-03-10T15:56:33.367Z,47.26
2019-03-10T15:59:10.970Z,47.92
2019-03-10T16:01:46.128Z,47.90
2019-03-10T16:04:24.691Z,46.39
2019-03-10T16:06:56.481Z,45.60
2019-03-10T16:09:28.124Z,46.84
2019-03-10T16:12:01.323Z,46.92
2019-03-10T16:14:32.915Z,46.99
2019-03-10T16:17:04.478Z,46.83
2019-03-10T16:19:42.661Z,46.20
2019-03-10T16:22:14.328Z,45.94
2019-03-10T16:24:48.737Z,44.81
2019-03-10T16:27:22.770Z,45.12
2019-03-10T16:29:59.137Z,44.58
2019-03-10T16:32:34.655Z,44.34
2019-03-10T16:35:07.955Z,44.72
2019-03-10T16:37:43.698Z,44.80
2019-03-10T16:40:18.961Z,45.33
2019-03-10T16:42:50.572Z,45.69
2019-03-10T16:45:22.380Z,45.57
2019-03-10T16:47:57.760Z,45.67
2019-03-10T16:50:29.674Z,46.03
2019-03-10T16:53:01.380Z,45.75
2019-03-10T16:55:34.801Z,46.14
2019-03-10T16:58:08.007Z,46.80
2019-03-10T17:00:40.780Z,46.29
2019-03-10T17:03:19.199Z,45.58
2019-03-10T17:05:52.010Z,46.25
2019-03-10T17:08:24.738Z,45.83
2019-03-10T17:11:00.561Z,45.30
2019-03-10T17:13:32.202Z,45.69
2019-03-10T17:16:06.437Z,46.10
2019-03-10T17:18:39.153Z,46.24
2019-03-10T17:21:14.018Z,45.98
2019-03-10T17:23:45.668Z,45.37
2019-03-10T17:26:18.400Z,45.46
2019-03-10T17:28:51.391Z,45.52
2019-03-10T17:31:23.020Z,46.02
2019-03-10T17:33:56.382Z,46.03
2019-03-10T17:36:29.608Z,46.22
2019-03-10T17:39:02.609Z,46.71
2019-03-10T17:41:39.426Z,46.06
2019-03-10T17:44:11.047Z,45.58
2019-03-10T17:46:42.651Z,45.47
2019-03-10T17:49:14.287Z,45.80
2019-03-10T17:51:57.024Z,45.98
2019-03-10T17:54:31.706Z,45.92
2019-03-10T17:57:03.296Z,45.48
2019-03-10T17:59:34.944Z,45.63
2019-03-10T18:02:09.172Z,45.62
2019-03-10T18:04:41.622Z,46.27
2019-03-10T18:07:16.257Z,46.60
2019-03-10T18:09:50.265Z,46.48
2019-03-10T18:12:21.986Z,46.60
2019-03-10T18:14:53.582Z,46.76
2019-03-10T18:17:30.592Z,47.80
2019-03-10T18:20:03.979Z,48.15
2019-03-10T18:22:37.882Z,48.65
2019-03-10T18:25:09.906Z,48.76
2019-03-10T18:27:41.591Z,49.39
2019-03-10T18:30:16.737Z,49.66
2019-03-10T18:32:48.328Z,49.86
2019-03-10T18:35:21.284Z,49.88
2019-03-10T18:37:52.873Z,51.08
2019-03-10T18:40:24.454Z,50.76
2019-03-10T18:42:56.183Z,51.56
2019-03-10T18:45:27.781Z,52.25
2019-03-10T18:47:59.357Z,54.15
2019-03-10T18:50:36.432Z,61.48
2019-03-10T18:53:09.117Z,65.41
2019-03-10T18:55:41.813Z,64.28
2019-03-10T18:58:13.407Z,63.78
2019-03-10T19:00:45.025Z,63.01
2019-03-10T19:03:17.902Z,64.23
2019-03-10T19:05:50.826Z,63.82
2019-03-10T19:08:24.748Z,64.79
2019-03-10T19:10:56.365Z,64.28
2019-03-10T19:13:27.979Z,63.55
2019-03-10T19:16:02.538Z,63.04
2019-03-10T19:18:35.879Z,63.27
2019-03-10T19:21:07.496Z,62.78
2019-03-10T19:23:39.124Z,61.54
2019-03-10T19:26:12.060Z,61.24
2019-03-10T19:28:46.308Z,60.60
2019-03-10T19:31:17.939Z,60.83
2019-03-10T19:33:50.681Z,60.61
2019-03-10T19:36:23.344Z,60.84
2019-03-10T19:38:57.701Z,60.14
2019-03-10T19:41:29.316Z,59.41
2019-03-10T19:44:01.010Z,59.33
2019-03-10T19:46:34.541Z,58.83
2019-03-10T19:49:06.156Z,59.13
2019-03-10T19:51:37.779Z,58.02
2019-03-10T19:54:11.727Z,58.46
2019-03-10T19:56:43.331Z,58.52
2019-03-10T19:59:19.297Z,58.43
2019-03-10T20:01:59.925Z,57.19
2019-03-10T20:04:34.594Z,56.94
2019-03-10T20:07:06.257Z,56.05
2019-03-10T20:09:39.963Z,54.73
2019-03-10T20:12:12.944Z,54.75
2019-03-10T20:14:46.943Z,53.86
2019-03-10T20:17:18.553Z,54.13
2019-03-10T20:19:55.576Z,53.81
2019-03-10T20:22:30.562Z,53.36
2019-03-10T20:25:03.805Z,51.96
2019-03-10T20:27:35.470Z,51.70
2019-03-10T20:30:08.887Z,51.26
2019-03-10T20:32:40.707Z,51.06
2019-03-10T20:35:12.674Z,51.38
2019-03-10T20:37:45.323Z,51.39
2019-03-10T20:40:20.337Z,51.41
2019-03-10T20:42:51.997Z,51.16
2019-03-10T20:45:28.217Z,51.51
2019-03-10T20:48:02.874Z,51.50
2019-03-10T20:50:34.486Z,51.63
2019-03-10T20:53:10.079Z,51.92
2019-03-10T20:55:43.432Z,51.86
2019-03-10T20:58:19.581Z,52.40
2019-03-10T21:00:51.020Z,52.23
2019-03-10T21:03:22.654Z,52.85
2019-03-10T21:05:54.354Z,52.81
2019-03-10T21:08:29.336Z,53.40
2019-03-10T21:11:00.905Z,52.57
2019-03-10T21:13:32.492Z,53.38
2019-03-10T21:16:05.181Z,53.41
2019-03-10T21:18:38.197Z,53.58
2019-03-10T21:21:16.207Z,53.91
2019-03-10T21:23:48.925Z,54.52
2019-03-10T21:26:28.852Z,54.83
2019-03-10T21:29:04.373Z,54.77
2019-03-10T21:31:36.069Z,54.63
2019-03-10T21:34:14.821Z,54.72
2019-03-10T21:36:47.872Z,54.66
2019-03-10T21:39:19.461Z,54.99
2019-03-10T21:41:52.980Z,55.35
2019-03-10T21:44:26.989Z,55.39
2019-03-10T21:47:01.517Z,55.40
2019-03-10T21:49:33.142Z,56.05
2019-03-10T21:52:07.080Z,55.98
2019-03-10T21:54:43.092Z,55.87
2019-03-10T21:57:14.716Z,55.96
2019-03-10T21:59:47.593Z,56.17
2019-03-10T22:02:21.316Z,56.04
2019-03-10T22:04:54.088Z,56.37
2019-03-10T22:07:28.496Z,55.71
2019-03-10T22:10:02.644Z,55.70
2019-03-10T22:12:38.814Z,55.43
2019-03-10T22:15:16.404Z,55.12
2019-03-10T22:17:53.047Z,55.21
2019-03-10T22:20:30.851Z,55.31
2019-03-10T22:23:02.430Z,55.14
2019-03-10T22:25:34.012Z,54.67
2019-03-10T22:28:05.749Z,54.73
2019-03-10T22:30:42.343Z,55.55
2019-03-10T22:33:17.031Z,55.08
2019-03-10T22:35:48.589Z,54.92
2019-03-10T22:38:20.246Z,55.19
2019-03-10T22:40:56.081Z,55.50
2019-03-10T22:43:29.126Z,55.28
2019-03-10T22:46:03.689Z,55.35
2019-03-10T22:48:38.292Z,55.51
2019-03-10T22:51:09.932Z,55.02
2019-03-10T22:53:45.368Z,55.35
2019-03-10T22:56:19.716Z,55.50
2019-03-10T22:58:58.756Z,55.36
2019-03-10T23:01:33.189Z,55.62
2019-03-10T23:04:08.590Z,55.70
2019-03-10T23:06:40.249Z,55.31
2019-03-10T23:09:15.285Z,55.10
2019-03-10T23:11:46.932Z,55.61
2019-03-10T23:14:21.309Z,55.38
2019-03-10T23:16:52.851Z,55.20
2019-03-10T23:19:24.434Z,55.48
2019-03-10T23:21:55.995Z,55.04
2019-03-10T23:24:30.893Z,55.29
2019-03-10T23:27:03.501Z,55.62
2019-03-10T23:29:35.097Z,55.47
2019-03-10T23:32:06.646Z,56.29
2019-03-10T23:34:45.830Z,55.52
2019-03-10T23:37:17.401Z,55.82
2019-03-10T23:39:50.571Z,55.73
2019-03-10T23:42:27.906Z,56.03
2019-03-10T23:45:00.864Z,55.44
2019-03-10T23:47:35.226Z,55.14
2019-03-10T23:50:07.719Z,55.40
2019-03-10T23:52:42.060Z,54.90
2019-03-10T23:55:14.093Z,54.35
2019-03-10T23:57:45.641Z,53.47
